Time;durP1;ratioP1;P1;durP2;ratioP2;P2;SDS_P1;SDS_P2;PMS_P1;PMS_P2;Temp;Humidity;BMP_temperature;BMP_pressure;BME280_temperature;BME280_humidity;BME280_pressure;Samples;Min_cycle;Max_cycle;Signal;HPM_P1;HPM_P2
2023/06/21 00:01:01;;;;;;;8.50;4.67;;;24.30;82.20;;;;;;5096496;28;20443;-71
2023/06/21 00:03:28;;;;;;;9.60;5.03;;;24.30;82.10;;;;;;5099150;28;20456;-70
2023/06/21 00:05:54;;;;;;;9.40;5.00;;;24.20;82.00;;;;;;5104780;28;20448;-70
2023/06/21 00:08:21;;;;;;;8.47;4.97;;;24.10;82.00;;;;;;5099243;28;20470;-70
2023/06/21 00:10:50;;;;;;;4.40;4.00;;;24.10;82.00;;;;;;5097846;28;20479;-70
2023/06/21 00:13:17;;;;;;;5.30;4.57;;;24.10;82.00;;;;;;5097632;28;20464;-69
2023/06/21 00:15:44;;;;;;;6.83;4.60;;;24.00;82.00;;;;;;5095606;28;20479;-70
2023/06/21 00:18:10;;;;;;;7.80;5.00;;;24.00;82.30;;;;;;5095488;28;20463;-70
2023/06/21 00:20:38;;;;;;;4.97;4.53;;;24.00;82.30;;;;;;5094973;28;20451;-70
2023/06/21 00:23:07;;;;;;;6.70;4.60;;;23.90;82.60;;;;;;5095141;28;20494;-69
2023/06/21 00:25:34;;;;;;;5.70;4.67;;;23.90;82.70;;;;;;5093585;28;20487;-71
2023/06/21 00:28:02;;;;;;;7.07;4.53;;;23.90;82.70;;;;;;5094539;28;20530;-70
2023/06/21 00:30:30;;;;;;;4.73;4.27;;;23.90;82.50;;;;;;5094373;28;20979;-69
2023/06/21 00:32:57;;;;;;;6.57;4.30;;;23.80;82.20;;;;;;5094524;28;20821;-69
2023/06/21 00:35:24;;;;;;;4.47;3.60;;;23.80;82.10;;;;;;5094237;28;20488;-70
2023/06/21 00:37:55;;;;;;;7.60;4.23;;;23.80;82.00;;;;;;5093824;28;20937;-70
2023/06/21 00:40:22;;;;;;;5.33;4.47;;;23.80;82.00;;;;;;5094122;28;20634;-70
2023/06/21 00:42:49;;;;;;;9.53;4.40;;;23.90;82.50;;;;;;5094038;28;20468;-69
2023/06/21 00:45:18;;;;;;;6.03;5.00;;;23.80;81.90;;;;;;5093883;28;20444;-69
2023/06/21 00:47:46;;;;;;;6.30;4.10;;;23.80;81.90;;;;;;5093768;28;20443;-70
2023/06/21 00:50:13;;;;;;;5.47;4.70;;;23.80;82.10;;;;;;5094201;28;20472;-69
2023/06/21 00:52:42;;;;;;;5.47;3.97;;;23.80;82.70;;;;;;5094026;28;20838;-69
2023/06/21 00:55:12;;;;;;;7.53;4.00;;;23.80;82.80;;;;;;5093824;28;20494;-70
2023/06/21 00:57:39;;;;;;;5.50;4.20;;;23.80;83.10;;;;;;5093930;28;20455;-70
2023/06/21 01:00:07;;;;;;;6.93;4.47;;;23.90;83.10;;;;;;5093956;28;20444;-70
2023/06/21 01:02:36;;;;;;;8.20;4.73;;;23.90;83.10;;;;;;5093682;28;20468;-69
2023/06/21 01:05:05;;;;;;;5.57;4.90;;;23.80;83.00;;;;;;5093812;28;20444;-70
2023/06/21 01:07:40;;;;;;;5.17;4.70;;;23.80;83.40;;;;;;5094148;28;20440;-70
2023/06/21 01:10:16;;;;;;;6.50;4.63;;;23.80;83.30;;;;;;5093655;28;20897;-69
2023/06/21 01:12:56;;;;;;;5.70;5.10;;;23.80;83.00;;;;;;5093836;28;20463;-70
2023/06/21 01:15:25;;;;;;;4.90;4.33;;;23.70;82.60;;;;;;5092187;28;20823;-70
2023/06/21 01:17:57;;;;;;;5.57;4.77;;;23.70;82.80;;;;;;5093406;28;20471;-70
2023/06/21 01:20:30;;;;;;;7.70;4.87;;;23.70;83.10;;;;;;5093517;28;20431;-70
2023/06/21 01:23:24;;;;;;;7.97;4.90;;;23.60;83.20;;;;;;5093706;28;20536;-69
2023/06/21 01:26:09;;;;;;;5.13;4.60;;;23.60;83.30;;;;;;5094006;28;20444;-70
2023/06/21 01:28:47;;;;;;;5.03;4.13;;;23.60;83.50;;;;;;5093722;28;20434;-70
2023/06/21 01:31:17;;;;;;;4.83;3.97;;;23.60;83.40;;;;;;5093945;28;20428;-70
2023/06/21 01:33:45;;;;;;;10.00;5.83;;;23.50;83.50;;;;;;5095652;28;20455;-70
2023/06/21 01:36:12;;;;;;;6.67;5.97;;;23.50;83.50;;;;;;5097567;28;20479;-70
2023/06/21 01:38:39;;;;;;;7.87;4.40;;;23.50;83.50;;;;;;5097648;28;20846;-70
2023/06/21 01:41:10;;;;;;;8.63;4.90;;;23.50;83.50;;;;;;5097489;28;20472;-70
2023/06/21 01:43:38;;;;;;;10.27;5.30;;;23.40;83.60;;;;;;5097794;28;20909;-69
2023/06/21 01:46:07;;;;;;;8.33;5.27;;;23.40;83.50;;;;;;5097223;28;20957;-70
2023/06/21 01:48:36;;;;;;;9.23;5.00;;;23.40;83.70;;;;;;5097334;28;20510;-69
2023/06/21 01:51:04;;;;;;;6.43;4.63;;;23.40;83.60;;;;;;5097118;28;20483;-70
2023/06/21 01:53:33;;;;;;;8.93;4.17;;;23.40;83.70;;;;;;5097382;28;20468;-70
2023/06/21 01:56:02;;;;;;;10.50;4.70;;;23.30;83.40;;;;;;5097196;28;20494;-70
2023/06/21 01:58:31;;;;;;;8.20;5.00;;;23.20;83.00;;;;;;5096777;28;20447;-70
2023/06/21 02:01:00;;;;;;;7.53;5.40;;;23.20;82.90;;;;;;5096662;28;20940;-70
2023/06/21 02:03:28;;;;;;;11.53;5.13;;;23.20;83.10;;;;;;5096969;28;20506;-69
2023/06/21 02:05:59;;;;;;;8.47;5.47;;;23.10;83.30;;;;;;5096861;28;20447;-70
2023/06/21 02:08:26;;;;;;;8.70;4.90;;;23.20;83.70;;;;;;5096557;28;20848;-70
2023/06/21 02:10:54;;;;;;;9.47;4.50;;;23.10;83.10;;;;;;5096784;28;20546;-69
2023/06/21 02:13:21;;;;;;;8.50;4.67;;;23.10;82.70;;;;;;5095321;28;21089;-70
2023/06/21 02:15:48;;;;;;;9.37;4.83;;;23.00;82.70;;;;;;5096701;28;20455;-70
2023/06/21 02:18:15;;;;;;;12.00;5.40;;;23.00;82.70;;;;;;5101718;28;20459;-71
2023/06/21 02:20:42;;;;;;;13.80;5.90;;;23.00;82.70;;;;;;5104410;28;20443;-69
2023/06/21 02:23:10;;;;;;;18.23;5.43;;;22.90;82.70;;;;;;5100798;28;20471;-69
2023/06/21 02:25:37;;;;;;;11.00;4.87;;;22.90;82.90;;;;;;5098268;28;20447;-70
2023/06/21 02:28:05;;;;;;;11.50;5.10;;;22.80;83.00;;;;;;5097238;28;20448;-70
2023/06/21 02:30:32;;;;;;;9.07;6.17;;;22.80;82.90;;;;;;5097682;28;20816;-70
2023/06/21 02:32:59;;;;;;;12.03;5.43;;;22.80;83.00;;;;;;5097779;28;20560;-69
2023/06/21 02:35:26;;;;;;;7.10;4.93;;;22.80;82.90;;;;;;5097289;28;20447;-70
2023/06/21 02:37:52;;;;;;;13.80;5.97;;;22.70;82.90;;;;;;5097078;28;20479;-70
2023/06/21 02:40:21;;;;;;;10.70;5.27;;;22.70;82.90;;;;;;5096588;28;20455;-70
2023/06/21 02:42:47;;;;;;;13.67;5.50;;;22.60;83.00;;;;;;5096662;28;20504;-69
2023/06/21 02:45:14;;;;;;;9.97;4.80;;;22.60;83.20;;;;;;5096218;28;20452;-70
2023/06/21 02:47:41;;;;;;;6.60;5.17;;;22.60;83.30;;;;;;5096369;28;20440;-70
2023/06/21 02:50:09;;;;;;;7.57;5.10;;;22.60;83.50;;;;;;5096336;28;20452;-71
2023/06/21 02:52:35;;;;;;;12.40;6.03;;;22.60;83.60;;;;;;5096127;28;20474;-69
2023/06/21 02:55:04;;;;;;;9.23;4.70;;;22.50;83.50;;;;;;5096116;28;20451;-70
2023/06/21 02:57:33;;;;;;;10.90;5.67;;;22.50;83.60;;;;;;5096086;28;20563;-70
2023/06/21 03:00:00;;;;;;;9.47;5.63;;;22.50;83.90;;;;;;5096271;28;20455;-70
2023/06/21 03:02:33;;;;;;;10.73;5.80;;;22.50;83.90;;;;;;5096061;28;20471;-69
2023/06/21 03:05:00;;;;;;;12.70;5.20;;;22.50;84.10;;;;;;5094825;28;20471;-70
2023/06/21 03:07:28;;;;;;;11.03;4.27;;;22.40;84.20;;;;;;5095537;28;21009;-70
2023/06/21 03:09:55;;;;;;;7.07;4.87;;;22.40;84.30;;;;;;5095813;28;20451;-69
2023/06/21 03:12:22;;;;;;;6.23;4.70;;;22.40;84.50;;;;;;5095376;28;20988;-69
2023/06/21 03:14:50;;;;;;;11.67;5.13;;;22.40;84.50;;;;;;5095694;28;20447;-70
2023/06/21 03:17:17;;;;;;;10.97;5.53;;;22.40;84.60;;;;;;5095157;28;20550;-71
2023/06/21 03:19:43;;;;;;;6.63;5.00;;;22.30;84.80;;;;;;5095550;28;20447;-69
2023/06/21 03:22:10;;;;;;;8.50;4.90;;;22.30;84.90;;;;;;5095202;28;20976;-69
2023/06/21 03:24:37;;;;;;;10.30;5.73;;;22.30;84.80;;;;;;5095605;28;20444;-70
2023/06/21 03:27:05;;;;;;;9.10;4.90;;;22.30;84.80;;;;;;5095148;28;20956;-70
2023/06/21 03:29:33;;;;;;;10.60;5.40;;;22.20;84.90;;;;;;5093871;28;20455;-70
2023/06/21 03:32:01;;;;;;;15.63;5.03;;;22.20;85.20;;;;;;5095223;28;20487;-70
2023/06/21 03:34:28;;;;;;;13.17;5.47;;;22.20;85.20;;;;;;5095262;28;20448;-70
2023/06/21 03:36:55;;;;;;;9.63;5.47;;;22.20;85.20;;;;;;5095228;28;20483;-70
2023/06/21 03:39:22;;;;;;;7.13;5.00;;;22.10;85.30;;;;;;5095395;28;20476;-70
2023/06/21 03:41:49;;;;;;;9.60;5.47;;;22.10;85.30;;;;;;5095400;28;20447;-70
2023/06/21 03:44:16;;;;;;;11.23;5.37;;;22.10;85.60;;;;;;5095054;28;20972;-70
2023/06/21 03:46:43;;;;;;;7.73;5.40;;;22.10;86.10;;;;;;5095140;28;20442;-70
2023/06/21 03:49:11;;;;;;;11.47;5.80;;;22.10;86.20;;;;;;5094563;28;20448;-70
2023/06/21 03:51:39;;;;;;;13.17;6.23;;;22.10;86.90;;;;;;5094607;28;20455;-69
2023/06/21 03:54:06;;;;;;;22.90;6.57;;;22.00;87.70;;;;;;5094593;28;20448;-70
2023/06/21 03:56:33;;;;;;;17.83;7.27;;;22.10;88.50;;;;;;5093969;28;20479;-70
2023/06/21 03:59:00;;;;;;;11.00;6.43;;;22.10;89.00;;;;;;5094508;28;20847;-70
2023/06/21 04:01:27;;;;;;;12.93;6.27;;;22.10;89.30;;;;;;5094781;28;20444;-70
2023/06/21 04:03:54;;;;;;;16.07;7.33;;;22.10;89.50;;;;;;5094641;28;20499;-70
2023/06/21 04:06:22;;;;;;;13.93;6.87;;;22.20;89.40;;;;;;5094600;28;20451;-70
2023/06/21 04:08:49;;;;;;;14.80;6.73;;;22.20;89.10;;;;;;5094327;28;20870;-70
2023/06/21 04:11:16;;;;;;;11.03;5.73;;;22.20;89.00;;;;;;5093311;28;20862;-69
2023/06/21 04:13:43;;;;;;;15.20;6.50;;;22.20;88.80;;;;;;5094431;28;20471;-69
2023/06/21 04:16:09;;;;;;;16.53;6.93;;;22.20;89.20;;;;;;5096845;28;20443;-70
2023/06/21 04:18:37;;;;;;;19.13;6.20;;;22.20;89.20;;;;;;5099223;28;20458;-70
2023/06/21 04:21:04;;;;;;;18.13;7.17;;;22.20;89.40;;;;;;5096394;28;20458;-70
2023/06/21 04:23:33;;;;;;;20.67;7.73;;;22.20;89.80;;;;;;5097344;28;20463;-70
2023/06/21 04:25:59;;;;;;;11.17;5.73;;;22.30;89.80;;;;;;5097339;28;20444;-71
2023/06/21 04:28:26;;;;;;;12.50;6.70;;;22.30;89.70;;;;;;5096438;28;20451;-70
2023/06/21 04:30:55;;;;;;;16.03;6.30;;;22.30;90.00;;;;;;5098347;28;20444;-69
2023/06/21 04:33:22;;;;;;;13.53;7.30;;;22.30;90.00;;;;;;5105831;28;20475;-70
2023/06/21 04:35:49;;;;;;;20.03;6.73;;;22.30;90.30;;;;;;5109411;28;20797;-71
2023/06/21 04:38:15;;;;;;;15.80;7.20;;;22.30;90.50;;;;;;5100629;28;20484;-71
2023/06/21 04:40:44;;;;;;;17.20;7.60;;;22.40;90.70;;;;;;5098382;28;20452;-70
2023/06/21 04:43:10;;;;;;;15.77;6.50;;;22.40;90.60;;;;;;5098210;28;20467;-70
2023/06/21 04:45:37;;;;;;;11.03;7.70;;;22.50;90.70;;;;;;5096949;28;20451;-71
2023/06/21 04:48:05;;;;;;;13.27;8.13;;;22.50;90.70;;;;;;5097551;28;20530;-71
2023/06/21 04:50:32;;;;;;;12.20;7.10;;;22.50;90.90;;;;;;5096873;28;20819;-72
2023/06/21 04:52:59;;;;;;;8.50;7.53;;;22.50;90.90;;;;;;5096621;28;20471;-70
2023/06/21 04:55:26;;;;;;;11.77;7.80;;;22.60;91.10;;;;;;5095932;28;20452;-71
2023/06/21 04:57:58;;;;;;;15.30;8.27;;;22.70;91.40;;;;;;5097131;28;20475;-71
2023/06/21 05:00:25;;;;;;;18.00;7.93;;;22.70;91.60;;;;;;5097510;28;20840;-71
2023/06/21 05:02:51;;;;;;;16.73;8.23;;;22.70;91.60;;;;;;5096864;28;20471;-70
2023/06/21 05:05:18;;;;;;;12.30;8.53;;;22.70;91.70;;;;;;5097053;28;20447;-71
2023/06/21 05:07:45;;;;;;;21.47;8.57;;;22.80;91.90;;;;;;5097172;28;20816;-71
2023/06/21 05:10:12;;;;;;;15.40;8.57;;;22.80;91.80;;;;;;5096864;28;20925;-71
2023/06/21 05:12:39;;;;;;;15.00;8.27;;;22.80;91.90;;;;;;5097022;28;20467;-70
2023/06/21 05:15:09;;;;;;;14.70;8.77;;;22.90;91.80;;;;;;5096248;28;20444;-71
2023/06/21 05:17:36;;;;;;;20.63;8.83;;;22.90;92.00;;;;;;5096598;28;20490;-70
2023/06/21 05:20:04;;;;;;;12.83;8.57;;;22.90;92.00;;;;;;5097010;28;20443;-70
2023/06/21 05:22:31;;;;;;;17.30;8.40;;;23.00;92.00;;;;;;5096498;28;20859;-70
2023/06/21 05:24:57;;;;;;;13.53;8.10;;;23.00;92.00;;;;;;5095533;28;20443;-71
2023/06/21 05:27:24;;;;;;;19.00;9.27;;;23.00;91.90;;;;;;5095438;28;20444;-71
2023/06/21 05:29:51;;;;;;;13.10;8.60;;;23.10;92.10;;;;;;5097561;28;20480;-71
2023/06/21 05:32:19;;;;;;;15.07;8.80;;;23.10;92.20;;;;;;5099315;28;20464;-71
2023/06/21 05:34:47;;;;;;;20.50;9.77;;;23.10;92.30;;;;;;5099695;28;20505;-71
2023/06/21 05:37:14;;;;;;;13.03;8.30;;;23.10;92.40;;;;;;5099992;28;20475;-71
2023/06/21 05:39:40;;;;;;;14.50;9.20;;;23.10;92.40;;;;;;5099073;28;20968;-71
2023/06/21 05:42:07;;;;;;;14.70;9.40;;;23.10;92.40;;;;;;5098859;28;20471;-70
2023/06/21 05:44:34;;;;;;;18.10;9.80;;;23.20;92.60;;;;;;5098135;28;20444;-71
2023/06/21 05:47:01;;;;;;;17.03;10.00;;;23.20;92.50;;;;;;5098480;28;20840;-71
2023/06/21 05:49:29;;;;;;;21.50;9.93;;;23.20;92.60;;;;;;5097087;28;20474;-71
2023/06/21 05:51:56;;;;;;;14.57;8.97;;;23.30;92.60;;;;;;5098519;28;20472;-70
2023/06/21 05:54:22;;;;;;;16.13;10.13;;;23.20;92.60;;;;;;5098657;28;20444;-70
2023/06/21 05:56:51;;;;;;;14.03;9.33;;;23.20;92.50;;;;;;5099023;28;20448;-71
2023/06/21 05:59:18;;;;;;;21.90;10.17;;;23.20;92.50;;;;;;5098711;28;20937;-71
2023/06/21 06:01:45;;;;;;;17.90;9.70;;;23.30;92.50;;;;;;5099073;28;20454;-70
2023/06/21 06:04:12;;;;;;;14.13;9.63;;;23.30;92.60;;;;;;5099646;28;20440;-71
2023/06/21 06:06:42;;;;;;;11.60;9.33;;;23.30;92.40;;;;;;5099013;28;20443;-71
2023/06/21 06:09:10;;;;;;;12.73;10.20;;;23.30;92.50;;;;;;5098676;28;20489;-71
2023/06/21 06:11:38;;;;;;;30.67;11.23;;;23.40;92.70;;;;;;5099365;28;20452;-70
2023/06/21 06:14:04;;;;;;;19.67;10.40;;;23.40;92.60;;;;;;5099244;28;20459;-71
2023/06/21 06:16:31;;;;;;;14.60;10.30;;;23.50;92.60;;;;;;5098805;28;20504;-71
2023/06/21 06:18:58;;;;;;;14.67;10.70;;;23.50;92.60;;;;;;5099303;28;21008;-71
2023/06/21 06:21:25;;;;;;;12.20;10.30;;;23.50;92.70;;;;;;5102249;28;20444;-71
2023/06/21 06:23:54;;;;;;;16.73;9.73;;;23.50;92.70;;;;;;5100753;28;20544;-71
2023/06/21 06:26:23;;;;;;;19.30;11.43;;;23.50;92.60;;;;;;5101839;28;20452;-71
2023/06/21 06:28:50;;;;;;;11.33;9.70;;;23.60;92.50;;;;;;5101313;28;20471;-71
2023/06/21 06:31:19;;;;;;;12.17;11.00;;;23.60;92.90;;;;;;5101101;28;20448;-71
2023/06/21 06:33:46;;;;;;;14.00;9.50;;;23.60;92.70;;;;;;5110770;28;20466;-71
2023/06/21 06:36:13;;;;;;;19.47;10.43;;;23.70;92.50;;;;;;5122239;28;20483;-68
2023/06/21 06:38:40;;;;;;;14.10;11.70;;;23.70;92.40;;;;;;5100158;28;20503;-70
2023/06/21 06:41:08;;;;;;;16.17;10.43;;;23.80;92.70;;;;;;5100658;28;20451;-70
2023/06/21 06:43:35;;;;;;;13.27;10.07;;;23.80;92.40;;;;;;5101460;28;20468;-70
2023/06/21 06:46:02;;;;;;;13.20;10.80;;;23.80;92.70;;;;;;5105208;28;20511;-71
2023/06/21 06:48:31;;;;;;;11.70;10.20;;;23.90;92.70;;;;;;5108822;28;20448;-71
2023/06/21 06:50:58;;;;;;;13.93;9.77;;;23.90;91.90;;;;;;5104594;28;20452;-70
2023/06/21 06:53:26;;;;;;;11.60;10.50;;;24.10;92.50;;;;;;5117982;28;20534;-71
2023/06/21 06:55:54;;;;;;;10.40;9.40;;;24.30;92.30;;;;;;5122550;28;20447;-70
2023/06/21 06:58:23;;;;;;;10.87;9.87;;;24.50;91.60;;;;;;5121833;28;20489;-71
2023/06/21 07:00:50;;;;;;;11.77;10.17;;;24.60;91.30;;;;;;5122082;28;20449;-71
2023/06/21 07:03:16;;;;;;;11.07;10.17;;;24.70;90.60;;;;;;5122196;28;20466;-71
2023/06/21 07:05:44;;;;;;;11.53;10.50;;;24.90;91.10;;;;;;5121732;28;20446;-71
2023/06/21 07:08:12;;;;;;;12.17;10.90;;;25.00;90.30;;;;;;5120799;28;20449;-71
2023/06/21 07:10:39;;;;;;;10.63;9.63;;;25.20;88.60;;;;;;5108598;28;20452;-71
2023/06/21 07:13:06;;;;;;;11.00;10.00;;;25.30;88.50;;;;;;5111483;28;20475;-70
2023/06/21 07:15:34;;;;;;;9.70;8.83;;;25.30;87.40;;;;;;5120264;28;20460;-70
2023/06/21 07:18:01;;;;;;;11.33;10.37;;;25.30;87.90;;;;;;5108833;28;20487;-72
2023/06/21 07:20:28;;;;;;;10.70;9.60;;;25.40;86.80;;;;;;5099921;28;20456;-71
2023/06/21 07:22:55;;;;;;;12.20;10.90;;;25.40;86.30;;;;;;5099760;28;20459;-70
2023/06/21 07:25:22;;;;;;;11.10;10.20;;;25.60;86.30;;;;;;5097879;28;20451;-71
2023/06/21 07:27:49;;;;;;;12.60;11.43;;;25.80;87.00;;;;;;5104588;28;20444;-70
2023/06/21 07:30:16;;;;;;;12.60;11.40;;;25.90;85.00;;;;;;5108271;28;20456;-71
2023/06/21 07:32:46;;;;;;;12.47;11.37;;;26.00;85.10;;;;;;5105358;28;20528;-70
2023/06/21 07:35:14;;;;;;;12.50;11.30;;;26.10;84.00;;;;;;5104670;28;20807;-71
2023/06/21 07:37:41;;;;;;;12.40;11.27;;;26.10;83.70;;;;;;5096794;28;20859;-70
2023/06/21 07:40:10;;;;;;;12.60;11.30;;;26.00;82.60;;;;;;5107389;28;20454;-70
2023/06/21 07:42:36;;;;;;;11.67;10.77;;;26.00;83.20;;;;;;5115154;28;20471;-69
2023/06/21 07:45:04;;;;;;;12.73;11.53;;;25.90;83.40;;;;;;5115211;28;20503;-71
2023/06/21 07:47:31;;;;;;;13.10;11.27;;;25.90;84.10;;;;;;5098258;28;20484;-71
2023/06/21 07:49:59;;;;;;;10.97;9.97;;;26.00;83.50;;;;;;5114485;28;20450;-70
2023/06/21 07:52:26;;;;;;;11.97;10.63;;;26.20;83.50;;;;;;5118340;28;21026;-70
2023/06/21 07:54:53;;;;;;;11.10;10.20;;;26.30;82.60;;;;;;5119222;28;20453;-71
2023/06/21 07:57:20;;;;;;;12.20;10.97;;;26.50;82.10;;;;;;5120061;28;20447;-71
2023/06/21 07:59:47;;;;;;;11.37;10.27;;;26.70;81.30;;;;;;5103881;28;20531;-71
2023/06/21 08:02:17;;;;;;;14.40;10.23;;;26.90;79.80;;;;;;5115191;28;20459;-70
2023/06/21 08:04:44;;;;;;;13.20;11.90;;;27.20;79.80;;;;;;5098741;28;20451;-72
2023/06/21 08:07:13;;;;;;;11.87;10.87;;;27.30;77.10;;;;;;5117262;28;20522;-71
2023/06/21 08:09:40;;;;;;;11.97;10.77;;;27.30;78.30;;;;;;5119931;28;20466;-71
2023/06/21 08:12:07;;;;;;;12.53;11.43;;;27.30;76.50;;;;;;5106117;28;20472;-71
2023/06/21 08:14:34;;;;;;;11.87;10.77;;;27.30;74.50;;;;;;5099345;28;20456;-71
2023/06/21 08:17:01;;;;;;;10.40;9.37;;;27.30;75.30;;;;;;5098974;28;20469;-72
2023/06/21 08:19:28;;;;;;;16.53;10.97;;;27.50;75.40;;;;;;5096635;28;20480;-71
2023/06/21 08:21:55;;;;;;;13.00;10.80;;;27.70;74.30;;;;;;5112484;28;21005;-71
2023/06/21 08:24:25;;;;;;;12.90;11.70;;;27.90;73.50;;;;;;5112562;28;20447;-71
2023/06/21 08:26:52;;;;;;;11.10;10.20;;;27.80;71.70;;;;;;5108484;28;20442;-71
2023/06/21 08:29:19;;;;;;;11.70;10.13;;;27.80;72.70;;;;;;5118538;28;20442;-72
2023/06/21 08:31:45;;;;;;;12.23;10.80;;;27.90;74.00;;;;;;5119042;28;20453;-71
2023/06/21 08:34:12;;;;;;;11.87;10.40;;;28.00;71.70;;;;;;5103180;28;20450;-71
2023/06/21 08:36:49;;;;;;;11.40;10.47;;;28.00;71.80;;;;;;5102052;28;20527;-71
2023/06/21 08:39:18;;;;;;;10.37;9.47;;;28.10;71.80;;;;;;5106776;28;20459;-72
2023/06/21 08:41:47;;;;;;;9.20;8.40;;;28.40;71.20;;;;;;5097582;28;20448;-71
2023/06/21 08:44:13;;;;;;;12.60;10.37;;;28.80;69.90;;;;;;5098775;28;20452;-71
2023/06/21 08:46:42;;;;;;;11.80;10.57;;;29.10;67.50;;;;;;5099600;28;20459;-71
2023/06/21 08:49:13;;;;;;;12.00;9.97;;;29.10;66.80;;;;;;5112746;28;20440;-71
2023/06/21 08:51:41;;;;;;;12.77;11.67;;;29.10;65.70;;;;;;5097418;28;20452;-71
2023/06/21 08:54:09;;;;;;;12.00;10.47;;;29.10;64.20;;;;;;5098154;28;20458;-71
2023/06/21 08:56:42;;;;;;;11.43;10.20;;;29.20;66.30;;;;;;5103271;28;20447;-71
2023/06/21 08:59:18;;;;;;;11.70;10.57;;;29.20;64.10;;;;;;5117128;28;20471;-71
2023/06/21 09:01:53;;;;;;;11.50;10.40;;;29.10;63.60;;;;;;5101155;28;20470;-71
2023/06/21 09:04:24;;;;;;;12.47;11.33;;;29.00;63.80;;;;;;5120406;28;20453;-71
2023/06/21 09:06:52;;;;;;;10.60;9.60;;;28.70;64.20;;;;;;5123717;28;20444;-71
2023/06/21 09:09:21;;;;;;;12.13;10.90;;;28.50;66.00;;;;;;5099605;28;20443;-71
2023/06/21 09:11:48;;;;;;;11.63;10.63;;;28.60;66.70;;;;;;5098414;28;20798;-71
2023/06/21 09:14:18;;;;;;;12.73;11.73;;;28.60;65.60;;;;;;5096892;28;20964;-71
2023/06/21 09:16:46;;;;;;;12.60;11.30;;;28.70;66.30;;;;;;5108946;28;20442;-71
2023/06/21 09:19:13;;;;;;;11.80;10.63;;;28.60;64.50;;;;;;5117750;28;20492;-70
2023/06/21 09:21:42;;;;;;;12.50;11.40;;;28.90;66.10;;;;;;5117732;28;20455;-71
2023/06/21 09:24:09;;;;;;;11.93;10.93;;;29.10;63.40;;;;;;5097804;28;20459;-72
2023/06/21 09:26:37;;;;;;;11.40;10.13;;;29.10;62.80;;;;;;5097034;28;20452;-71
2023/06/21 09:29:04;;;;;;;13.83;12.33;;;29.20;62.40;;;;;;5109997;28;20450;-71
2023/06/21 09:31:32;;;;;;;13.17;11.87;;;29.00;61.90;;;;;;5101740;28;20440;-71
2023/06/21 09:33:59;;;;;;;11.60;10.60;;;29.10;62.50;;;;;;5114572;28;20446;-71
2023/06/21 09:36:26;;;;;;;12.67;11.20;;;29.10;63.00;;;;;;5117801;28;20443;-71
2023/06/21 09:39:05;;;;;;;11.50;10.50;;;29.40;63.90;;;;;;5113582;28;20472;-71
2023/06/21 09:41:33;;;;;;;11.37;10.27;;;29.90;63.00;;;;;;5106256;28;20936;-71
2023/06/21 09:44:00;;;;;;;11.40;10.27;;;30.20;59.60;;;;;;5116037;28;20859;-71
2023/06/21 09:46:26;;;;;;;10.17;9.37;;;30.40;58.90;;;;;;5106624;28;20454;-71
2023/06/21 09:48:55;;;;;;;11.73;10.83;;;30.50;57.70;;;;;;5098653;28;20444;-69
2023/06/21 09:51:25;;;;;;;11.53;10.50;;;30.50;58.00;;;;;;5097773;28;20820;-69
2023/06/21 09:53:52;;;;;;;11.40;10.30;;;30.50;58.40;;;;;;5113163;28;20803;-69
2023/06/21 09:56:20;;;;;;;13.23;10.50;;;30.70;59.10;;;;;;5121101;28;20819;-69
2023/06/21 09:58:49;;;;;;;11.10;10.10;;;30.80;58.50;;;;;;5121228;28;20478;-69
2023/06/21 10:01:17;;;;;;;11.10;10.10;;;31.00;57.50;;;;;;5111177;28;20474;-69
2023/06/21 10:03:45;;;;;;;11.23;10.03;;;31.40;56.00;;;;;;5121113;28;20992;-71
2023/06/21 10:06:16;;;;;;;11.33;10.43;;;31.40;53.90;;;;;;5116600;28;20467;-69
2023/06/21 10:08:44;;;;;;;9.83;8.97;;;31.10;53.90;;;;;;5107879;28;20793;-70
2023/06/21 10:11:11;;;;;;;10.13;9.33;;;30.70;54.70;;;;;;5111438;28;20452;-70
2023/06/21 10:13:39;;;;;;;8.67;8.07;;;30.70;54.80;;;;;;5105093;28;20458;-70
2023/06/21 10:16:06;;;;;;;9.13;8.40;;;30.80;54.80;;;;;;5121413;28;20448;-70
2023/06/21 10:18:34;;;;;;;8.30;7.60;;;31.00;54.90;;;;;;5120786;28;21021;-70
2023/06/21 10:21:03;;;;;;;10.10;8.70;;;31.30;53.30;;;;;;5118996;28;20450;-70
2023/06/21 10:23:34;;;;;;;9.90;9.00;;;31.50;52.50;;;;;;5116100;28;20813;-70
2023/06/21 10:26:03;;;;;;;10.90;8.43;;;31.90;52.80;;;;;;5129530;28;20470;-70
2023/06/21 10:28:35;;;;;;;8.83;7.97;;;31.90;49.50;;;;;;5124805;28;20446;-70
2023/06/21 10:31:04;;;;;;;8.47;7.80;;;31.80;50.20;;;;;;5120639;28;20803;-69
2023/06/21 10:33:35;;;;;;;9.60;8.80;;;31.60;50.80;;;;;;5120546;28;20533;-70
2023/06/21 10:36:03;;;;;;;9.60;8.90;;;31.50;51.90;;;;;;5120132;28;20446;-71
2023/06/21 10:38:38;;;;;;;8.63;8.00;;;31.30;51.90;;;;;;5121923;28;20452;-71
2023/06/21 10:41:06;;;;;;;9.33;7.47;;;31.50;51.80;;;;;;5121689;28;20449;-69
2023/06/21 10:43:37;;;;;;;8.27;7.57;;;31.60;50.60;;;;;;5120302;28;20466;-70
2023/06/21 10:46:05;;;;;;;8.67;8.00;;;31.70;50.80;;;;;;5122693;28;20427;-70
2023/06/21 10:48:33;;;;;;;8.67;7.87;;;31.50;51.20;;;;;;5122154;28;20966;-70
2023/06/21 10:51:02;;;;;;;8.83;8.13;;;31.20;51.40;;;;;;5121948;28;20461;-70
2023/06/21 10:53:32;;;;;;;8.27;7.57;;;30.90;52.30;;;;;;5121517;27;20469;-70
2023/06/21 10:56:00;;;;;;;8.80;7.73;;;31.10;52.50;;;;;;5121573;28;20423;-71
2023/06/21 10:58:29;;;;;;;9.20;7.47;;;31.90;52.00;;;;;;5120779;28;20452;-70
2023/06/21 11:00:57;;;;;;;8.10;7.50;;;32.50;48.70;;;;;;5118944;28;20442;-69
2023/06/21 11:03:25;;;;;;;7.37;6.70;;;33.50;48.80;;;;;;5121400;28;20462;-70
2023/06/21 11:05:55;;;;;;;10.97;7.50;;;34.50;46.10;;;;;;5121401;28;20461;-70
2023/06/21 11:08:31;;;;;;;8.93;8.20;;;35.00;43.00;;;;;;5120732;28;20477;-70
2023/06/21 11:10:59;;;;;;;7.00;6.40;;;35.40;40.30;;;;;;5121903;28;20430;-70
2023/06/21 11:13:37;;;;;;;7.60;7.10;;;35.60;40.50;;;;;;5121011;28;20470;-70
2023/06/21 11:16:11;;;;;;;6.97;6.37;;;36.00;39.60;;;;;;5120647;28;20511;-70
2023/06/21 11:18:38;;;;;;;7.43;6.77;;;36.80;38.60;;;;;;5122025;28;20204;-71
2023/06/21 11:21:07;;;;;;;7.53;6.83;;;37.30;36.20;;;;;;5130501;28;20245;-70
2023/06/21 11:23:49;;;;;;;6.80;6.30;;;37.30;36.70;;;;;;5121984;28;20266;-70
2023/06/21 11:26:18;;;;;;;6.60;6.10;;;37.00;35.20;;;;;;5121331;28;20234;-71
2023/06/21 11:28:47;;;;;;;6.07;5.57;;;37.10;36.40;;;;;;5121316;28;20226;-71
2023/06/21 11:31:17;;;;;;;6.67;6.10;;;37.60;36.20;;;;;;5120934;28;20204;-70
2023/06/21 11:34:03;;;;;;;6.07;5.25;;;37.70;33.20;;;;;;5120714;28;20278;-70
2023/06/21 11:36:32;;;;;;;6.20;5.70;;;37.50;34.10;;;;;;5120654;28;20280;-71
2023/06/21 11:39:20;;;;;;;5.30;4.67;;;37.30;33.60;;;;;;5120155;28;20238;-71
2023/06/21 11:42:01;;;;;;;6.77;6.20;;;37.20;35.10;;;;;;5119748;28;20204;-70
2023/06/21 11:44:30;;;;;;;5.90;5.50;;;37.70;34.10;;;;;;5119451;28;20235;-71
2023/06/21 11:47:17;;;;;;;6.28;5.78;;;38.30;34.10;;;;;;5118314;28;20631;-71
2023/06/21 11:49:56;;;;;;;7.40;6.25;;;38.70;32.30;;;;;;5120013;28;20200;-71
2023/06/21 11:52:25;;;;;;;5.93;5.53;;;39.20;32.40;;;;;;5119721;28;20228;-71
2023/06/21 11:54:51;;;;;;;7.22;5.82;;;39.50;30.30;;;;;;5100768;28;20673;-71
2023/06/21 11:57:20;;;;;;;5.65;5.13;;;39.80;29.90;;;;;;5118845;28;20253;-71
2023/06/21 11:59:46;;;;;;;5.88;5.38;;;40.20;29.60;;;;;;5118420;28;20219;-71
2023/06/21 12:02:14;;;;;;;5.32;4.85;;;40.30;29.00;;;;;;5119643;28;20220;-70
2023/06/21 12:04:42;;;;;;;5.22;4.82;;;40.40;28.90;;;;;;5119810;28;20196;-71
2023/06/21 12:07:09;;;;;;;4.80;4.50;;;40.10;28.80;;;;;;5118671;28;20577;-71
2023/06/21 12:09:37;;;;;;;5.10;4.60;;;39.70;28.80;;;;;;5118868;28;20223;-71
2023/06/21 12:12:07;;;;;;;5.38;4.88;;;39.40;29.70;;;;;;5119430;28;20228;-70
2023/06/21 12:14:36;;;;;;;5.65;5.00;;;39.10;29.00;;;;;;5119798;28;20566;-71
2023/06/21 12:17:03;;;;;;;4.93;4.63;;;39.60;29.60;;;;;;5117431;28;20203;-71
2023/06/21 12:19:33;;;;;;;5.93;5.32;;;40.20;28.80;;;;;;5118963;28;20220;-71
2023/06/21 12:22:02;;;;;;;5.28;4.93;;;40.80;27.90;;;;;;5119573;28;20231;-70
2023/06/21 12:24:29;;;;;;;5.50;5.10;;;41.40;27.80;;;;;;5117921;28;20566;-71
2023/06/21 12:27:00;;;;;;;4.78;4.40;;;41.80;27.20;;;;;;5119006;28;20211;-71
2023/06/21 12:29:28;;;;;;;5.75;5.15;;;42.10;26.30;;;;;;5118826;28;20215;-71
2023/06/21 12:31:57;;;;;;;4.68;4.38;;;41.90;26.20;;;;;;5119203;28;20221;-71
2023/06/21 12:34:25;;;;;;;6.38;4.30;;;41.90;26.40;;;;;;5119891;28;20201;-71
2023/06/21 12:36:52;;;;;;;5.07;4.57;;;42.30;27.30;;;;;;5119716;28;20204;-71
2023/06/21 12:39:21;;;;;;;4.75;4.30;;;42.90;26.00;;;;;;5118837;28;20701;-71
2023/06/21 12:41:49;;;;;;;4.88;3.42;;;43.60;24.60;;;;;;5118930;28;20742;-70
2023/06/21 12:44:21;;;;;;;4.20;3.88;;;43.90;23.50;;;;;;5119697;28;20295;-71